createdAt,value
2018-07-13T00:00:17.801Z,16.20
2018-07-13T00:02:47.440Z,16.20
2018-07-13T00:05:17.140Z,16.20
2018-07-13T00:07:46.752Z,16.30
2018-07-13T00:10:16.188Z,16.20
2018-07-13T00:12:45.696Z,16.10
2018-07-13T00:15:15.398Z,16.00
2018-07-13T00:17:45.024Z,15.90
2018-07-13T00:20:14.819Z,15.60
2018-07-13T00:22:44.426Z,15.50
2018-07-13T00:25:14.102Z,15.50
2018-07-13T00:27:43.713Z,15.70
2018-07-13T00:30:13.148Z,15.80
2018-07-13T00:32:42.827Z,15.80
2018-07-13T00:35:13.179Z,15.60
2018-07-13T00:37:42.428Z,15.50
2018-07-13T00:40:11.728Z,15.40
2018-07-13T00:42:40.958Z,15.40
2018-07-13T00:45:10.223Z,15.50
2018-07-13T00:47:39.448Z,15.70
2018-07-13T00:50:08.681Z,15.90
2018-07-13T00:52:37.908Z,16.10
2018-07-13T00:55:07.527Z,16.20
2018-07-13T00:57:36.764Z,16.30
2018-07-13T01:00:06.028Z,16.20
2018-07-13T01:02:35.261Z,16.20
2018-07-13T01:05:04.579Z,16.00
2018-07-13T01:07:34.235Z,15.80
2018-07-13T01:10:03.468Z,15.70
2018-07-13T01:12:32.737Z,15.70
2018-07-13T01:15:02.069Z,15.80
2018-07-13T01:17:31.307Z,15.80
2018-07-13T01:20:00.567Z,15.50
2018-07-13T01:22:29.766Z,15.30
2018-07-13T01:24:59.053Z,15.20
2018-07-13T01:27:29.076Z,15.20
2018-07-13T01:29:59.068Z,15.10
2018-07-13T01:32:28.285Z,15.10
2018-07-13T01:34:57.596Z,15.20
2018-07-13T01:37:26.796Z,15.20
2018-07-13T01:39:56.018Z,15.40
2018-07-13T01:42:25.260Z,15.60
2018-07-13T01:44:54.587Z,15.50
2018-07-13T01:47:23.788Z,15.60
2018-07-13T01:49:52.996Z,15.60
2018-07-13T01:52:22.208Z,15.60
2018-07-13T01:54:51.466Z,15.50
2018-07-13T01:57:20.707Z,15.20
2018-07-13T01:59:50.193Z,15.00
2018-07-13T02:02:19.420Z,14.80
2018-07-13T02:04:48.794Z,14.70
2018-07-13T02:07:18.028Z,14.70
2018-07-13T02:09:47.348Z,14.80
2018-07-13T02:12:16.665Z,15.00
2018-07-13T02:14:45.952Z,15.20
2018-07-13T02:17:15.803Z,15.30
2018-07-13T02:19:45.302Z,15.40
2018-07-13T02:22:15.219Z,15.10
2018-07-13T02:24:46.370Z,15.00
2018-07-13T02:27:16.687Z,15.10
2018-07-13T02:29:46.192Z,15.10
2018-07-13T02:32:16.006Z,15.00
2018-07-13T02:34:46.673Z,15.10
2018-07-13T02:37:16.169Z,15.10
2018-07-13T02:39:45.967Z,15.00
2018-07-13T02:42:15.203Z,15.10
2018-07-13T02:44:44.899Z,15.00
2018-07-13T02:47:14.139Z,14.90
2018-07-13T02:49:43.438Z,14.90
2018-07-13T02:52:12.669Z,14.80
2018-07-13T02:54:41.948Z,14.80
2018-07-13T02:57:11.165Z,14.80
2018-07-13T02:59:40.360Z,14.70
2018-07-13T03:02:09.582Z,14.80
2018-07-13T03:04:38.922Z,14.80
2018-07-13T03:07:08.157Z,14.70
2018-07-13T03:09:37.364Z,14.70
2018-07-13T03:12:06.584Z,14.70
2018-07-13T03:14:35.828Z,14.80
2018-07-13T03:17:05.156Z,14.80
2018-07-13T03:19:34.381Z,14.90
2018-07-13T03:22:03.793Z,14.90
2018-07-13T03:24:33.058Z,14.80
2018-07-13T03:27:02.260Z,14.70
2018-07-13T03:29:31.456Z,14.70
2018-07-13T03:32:00.831Z,14.80
2018-07-13T03:34:30.080Z,14.60
2018-07-13T03:36:59.774Z,14.50
2018-07-13T03:39:29.004Z,14.60
2018-07-13T03:41:58.296Z,14.70
2018-07-13T03:44:27.560Z,14.70
2018-07-13T03:46:56.760Z,14.70
2018-07-13T03:49:26.340Z,14.70
2018-07-13T03:51:55.596Z,14.90
2018-07-13T03:54:24.843Z,14.90
2018-07-13T03:56:54.101Z,14.90
2018-07-13T03:59:23.326Z,14.90
2018-07-13T04:01:52.535Z,14.90
2018-07-13T04:04:21.767Z,15.10
2018-07-13T04:06:51.069Z,15.20
2018-07-13T04:09:20.331Z,15.30
2018-07-13T04:11:49.564Z,15.40
2018-07-13T04:14:18.784Z,15.50
2018-07-13T04:16:48.065Z,15.50
2018-07-13T04:19:17.304Z,15.30
2018-07-13T04:21:46.836Z,15.10
2018-07-13T04:24:16.124Z,14.90
2018-07-13T04:29:16.230Z,14.80
2018-07-13T04:31:45.472Z,14.60
2018-07-13T04:34:14.729Z,14.40
2018-07-13T04:36:43.968Z,14.30
2018-07-13T04:39:14.014Z,14.70
2018-07-13T04:41:43.247Z,14.80
2018-07-13T04:44:12.488Z,14.70
2018-07-13T04:46:41.888Z,14.70
2018-07-13T04:49:11.224Z,14.70
2018-07-13T04:51:40.591Z,14.70
2018-07-13T04:54:10.299Z,14.80
2018-07-13T04:56:39.764Z,14.90
2018-07-13T04:59:09.352Z,14.90
2018-07-13T05:04:07.646Z,14.90
2018-07-13T05:06:37.184Z,15.10
2018-07-13T05:11:36.256Z,15.40
2018-07-13T05:14:05.495Z,15.60
2018-07-13T05:16:34.959Z,15.90
2018-07-13T05:19:04.338Z,15.90
2018-07-13T05:21:33.840Z,16.00
2018-07-13T05:24:03.308Z,16.10
2018-07-13T05:26:33.158Z,16.40
2018-07-13T05:29:02.581Z,16.60
2018-07-13T05:31:32.153Z,16.90
2018-07-13T05:34:01.591Z,17.10
2018-07-13T05:36:31.123Z,17.10
2018-07-13T05:39:00.591Z,17.20
2018-07-13T05:41:30.032Z,17.30
2018-07-13T05:43:59.537Z,17.50
2018-07-13T05:46:28.999Z,17.50
2018-07-13T05:48:58.419Z,17.70
2018-07-13T05:51:27.899Z,17.70
2018-07-13T05:53:57.388Z,17.90
2018-07-13T05:56:26.976Z,18.00
2018-07-13T05:58:57.344Z,18.00
2018-07-13T06:01:26.740Z,18.10
2018-07-13T06:03:56.160Z,18.00
2018-07-13T06:06:25.586Z,18.00
2018-07-13T06:09:01.332Z,18.10
2018-07-13T06:11:30.828Z,18.20
2018-07-13T06:14:00.239Z,18.40
2018-07-13T06:16:29.601Z,18.50
2018-07-13T06:18:58.925Z,18.60
2018-07-13T06:21:28.269Z,18.70
2018-07-13T06:23:57.530Z,18.80
2018-07-13T06:26:26.940Z,19.10
2018-07-13T06:28:56.175Z,19.30
2018-07-13T06:31:25.509Z,19.30
2018-07-13T06:33:54.844Z,19.60
2018-07-13T06:36:24.381Z,19.70
2018-07-13T06:38:53.888Z,19.90
2018-07-13T06:41:23.283Z,20.00
2018-07-13T06:43:52.638Z,20.00
2018-07-13T06:46:22.169Z,20.00
2018-07-13T06:48:51.588Z,20.00
2018-07-13T06:51:21.012Z,20.10
2018-07-13T06:53:50.496Z,20.20
2018-07-13T06:56:19.799Z,20.30
2018-07-13T06:59:01.791Z,20.20
2018-07-13T07:01:31.080Z,20.30
2018-07-13T07:04:37.516Z,20.20
2018-07-13T07:07:17.023Z,20.30
2018-07-13T07:12:53.888Z,20.40
2018-07-13T07:15:24.315Z,20.50
2018-07-13T07:17:54.539Z,20.50
2018-07-13T07:20:23.900Z,20.60
2018-07-13T07:22:56.273Z,20.90
2018-07-13T07:25:25.732Z,21.00
2018-07-13T07:27:54.989Z,21.20
2018-07-13T07:30:24.385Z,21.20
2018-07-13T07:32:54.169Z,21.20
2018-07-13T07:35:23.561Z,21.00
2018-07-13T07:37:53.102Z,21.10
2018-07-13T07:40:22.640Z,21.30
2018-07-13T07:42:52.388Z,21.50
2018-07-13T07:45:21.998Z,21.60
2018-07-13T07:47:51.255Z,21.50
2018-07-13T07:50:20.669Z,21.40
2018-07-13T07:52:50.008Z,21.50
2018-07-13T07:55:19.506Z,21.60
2018-07-13T07:57:55.088Z,21.80
2018-07-13T08:00:24.336Z,22.00
2018-07-13T08:02:53.689Z,22.00
2018-07-13T08:05:23.324Z,22.20
2018-07-13T08:07:53.006Z,22.40
2018-07-13T08:10:22.440Z,22.40
2018-07-13T08:12:51.804Z,22.60
2018-07-13T08:15:21.237Z,22.80
2018-07-13T08:17:50.504Z,22.90
2018-07-13T08:20:26.070Z,22.70
2018-07-13T08:22:57.069Z,22.70
2018-07-13T08:25:28.024Z,22.80
2018-07-13T08:28:00.874Z,22.90
2018-07-13T08:30:33.169Z,23.20
2018-07-13T08:33:02.453Z,23.30
2018-07-13T08:35:32.105Z,23.40
2018-07-13T08:38:01.561Z,23.60
2018-07-13T08:40:31.033Z,23.60
2018-07-13T08:43:00.368Z,23.70
2018-07-13T08:45:29.761Z,23.60
2018-07-13T08:47:59.099Z,23.70
2018-07-13T08:50:28.885Z,23.70
2018-07-13T08:52:59.320Z,23.90
2018-07-13T08:55:29.004Z,23.90
2018-07-13T08:57:58.577Z,23.50
2018-07-13T09:00:28.204Z,24.00
2018-07-13T09:02:57.697Z,24.30
2018-07-13T09:05:27.341Z,23.80
2018-07-13T09:07:56.855Z,23.80
2018-07-13T09:10:26.342Z,23.70
2018-07-13T09:12:55.826Z,23.80
2018-07-13T09:15:25.283Z,23.70
2018-07-13T09:17:54.743Z,23.70
2018-07-13T09:20:24.274Z,23.80
2018-07-13T09:22:53.814Z,24.20
2018-07-13T09:25:23.195Z,24.20
2018-07-13T09:27:52.496Z,24.40
2018-07-13T09:30:21.863Z,24.80
2018-07-13T09:32:51.240Z,25.10
2018-07-13T09:35:20.607Z,25.20
2018-07-13T09:37:50.001Z,25.10
2018-07-13T09:40:19.777Z,24.90
2018-07-13T09:42:49.228Z,25.30
2018-07-13T09:47:47.304Z,25.30
2018-07-13T09:50:16.579Z,25.00
2018-07-13T09:52:45.972Z,25.50
2018-07-13T09:55:15.400Z,25.40
2018-07-13T09:57:44.778Z,25.50
2018-07-13T10:00:14.589Z,25.90
2018-07-13T10:02:43.992Z,25.70
2018-07-13T10:05:13.410Z,25.70
2018-07-13T10:07:42.892Z,25.40
2018-07-13T10:10:12.324Z,25.70
2018-07-13T10:12:41.752Z,26.30
2018-07-13T10:15:11.140Z,26.50
2018-07-13T10:17:40.540Z,26.50
2018-07-13T10:20:09.946Z,26.70
2018-07-13T10:22:39.478Z,27.00
2018-07-13T10:25:09.068Z,27.00
2018-07-13T10:27:39.303Z,26.80
2018-07-13T10:30:11.396Z,26.90
2018-07-13T10:32:42.048Z,27.20
2018-07-13T10:35:11.607Z,27.10
2018-07-13T10:37:42.967Z,27.50
2018-07-13T10:40:12.256Z,27.40
2018-07-13T10:42:41.640Z,27.30
2018-07-13T10:45:11.420Z,27.10
2018-07-13T10:47:40.805Z,27.40
2018-07-13T10:50:10.197Z,27.40
2018-07-13T10:52:39.547Z,27.60
2018-07-13T10:55:10.083Z,27.80
2018-07-13T10:57:39.492Z,27.70
2018-07-13T11:00:08.795Z,27.90
2018-07-13T11:02:38.179Z,27.70
2018-07-13T11:05:07.588Z,28.10
2018-07-13T11:07:36.934Z,27.80
2018-07-13T11:10:06.397Z,28.00
2018-07-13T11:12:35.776Z,28.50
2018-07-13T11:15:05.368Z,28.80
2018-07-13T11:17:34.971Z,29.10
2018-07-13T11:20:04.262Z,29.40
2018-07-13T11:22:33.616Z,29.20
2018-07-13T11:25:03.098Z,29.60
2018-07-13T11:27:32.468Z,29.50
2018-07-13T11:30:01.838Z,29.70
2018-07-13T11:32:31.213Z,29.50
2018-07-13T11:35:00.626Z,29.90
2018-07-13T11:37:30.050Z,30.00
2018-07-13T11:39:59.358Z,30.40
2018-07-13T11:42:28.652Z,30.20
2018-07-13T11:47:26.852Z,30.50
2018-07-13T11:49:56.218Z,30.60
2018-07-13T11:52:25.705Z,30.80
2018-07-13T11:54:55.112Z,30.50
2018-07-13T11:57:24.569Z,30.50
2018-07-13T11:59:53.922Z,30.90
2018-07-13T12:02:23.260Z,31.10
2018-07-13T12:04:52.637Z,30.90
2018-07-13T12:07:22.114Z,31.30
2018-07-13T12:09:51.512Z,31.70
2018-07-13T12:12:21.341Z,31.60
2018-07-13T12:17:19.514Z,32.10
2018-07-13T12:19:48.955Z,32.20
2018-07-13T12:22:18.733Z,32.50
2018-07-13T12:24:48.489Z,32.80
2018-07-13T12:27:17.869Z,32.90
2018-07-13T12:29:47.159Z,33.10
2018-07-13T12:32:16.532Z,33.10
2018-07-13T12:34:46.069Z,33.10
2018-07-13T12:37:15.392Z,32.90
2018-07-13T12:39:44.884Z,33.20
2018-07-13T12:42:14.177Z,33.40
2018-07-13T12:44:43.602Z,34.00
2018-07-13T12:47:13.007Z,34.00
2018-07-13T12:49:42.396Z,33.00
2018-07-13T12:52:11.763Z,33.30
2018-07-13T12:54:41.485Z,33.50
2018-07-13T12:57:10.787Z,34.30
2018-07-13T12:59:40.192Z,35.00
2018-07-13T13:04:38.608Z,35.00
2018-07-13T13:07:08.064Z,35.30
2018-07-13T13:09:37.370Z,35.90
2018-07-13T13:12:06.822Z,35.80
2018-07-13T13:14:36.096Z,35.70
2018-07-13T13:17:05.518Z,35.60
2018-07-13T13:19:35.263Z,35.50
2018-07-13T13:22:04.657Z,35.60
2018-07-13T13:24:34.056Z,35.50
2018-07-13T13:27:03.787Z,35.80
2018-07-13T13:29:33.082Z,36.10
2018-07-13T13:32:02.484Z,36.40
2018-07-13T13:34:31.805Z,36.70
2018-07-13T13:37:01.173Z,37.00
2018-07-13T13:39:30.479Z,37.10
2018-07-13T13:41:59.718Z,37.30
2018-07-13T13:44:29.040Z,37.80
2018-07-13T13:46:58.418Z,38.00
2018-07-13T13:49:27.766Z,38.00
2018-07-13T13:51:57.189Z,38.30
2018-07-13T13:54:26.516Z,38.70
2018-07-13T13:56:55.799Z,38.70
2018-07-13T13:59:25.555Z,37.90
2018-07-13T14:01:54.896Z,38.40
2018-07-13T14:04:24.354Z,38.80
2018-07-13T14:06:53.823Z,38.40
2018-07-13T14:09:23.193Z,38.80
2018-07-13T14:11:52.754Z,39.00
2018-07-13T14:14:22.303Z,38.90
2018-07-13T14:16:51.644Z,39.20
2018-07-13T14:19:20.969Z,39.70
2018-07-13T14:21:50.321Z,39.60
2018-07-13T14:24:19.691Z,39.00
2018-07-13T14:26:49.074Z,39.20
2018-07-13T14:29:18.378Z,38.90
2018-07-13T14:31:47.741Z,38.50
2018-07-13T14:34:17.075Z,39.00
2018-07-13T14:36:46.516Z,39.20
2018-07-13T14:39:15.802Z,39.60
2018-07-13T14:41:45.121Z,40.00
2018-07-13T14:44:14.491Z,40.20
2018-07-13T14:46:43.932Z,40.40
2018-07-13T14:49:13.269Z,39.90
2018-07-13T14:51:42.650Z,39.10
2018-07-13T14:54:11.911Z,39.40
2018-07-13T14:56:41.276Z,39.30
2018-07-13T14:59:10.610Z,39.80
2018-07-13T15:01:39.942Z,40.40
2018-07-13T15:04:09.247Z,39.40
2018-07-13T15:06:38.805Z,38.60
2018-07-13T15:09:08.549Z,37.80
2018-07-13T15:11:37.899Z,37.80
2018-07-13T15:14:07.305Z,38.30
2018-07-13T15:16:36.917Z,38.20
2018-07-13T15:19:06.264Z,38.50
2018-07-13T15:21:35.531Z,38.70
2018-07-13T15:24:04.860Z,39.00
2018-07-13T15:26:34.253Z,39.10
2018-07-13T15:29:03.682Z,38.50
2018-07-13T15:31:32.976Z,37.70
2018-07-13T15:34:02.382Z,37.40
2018-07-13T15:36:31.771Z,37.90
2018-07-13T15:39:01.148Z,38.30
2018-07-13T15:41:30.474Z,39.00
2018-07-13T15:43:59.790Z,39.20
2018-07-13T15:46:29.347Z,38.80
2018-07-13T15:48:58.735Z,38.00
2018-07-13T15:51:28.058Z,38.50
2018-07-13T15:53:57.356Z,39.90
2018-07-13T15:56:26.784Z,40.20
2018-07-13T15:58:56.212Z,39.40
2018-07-13T16:01:25.570Z,38.50
2018-07-13T16:03:54.943Z,37.90
2018-07-13T16:06:24.640Z,38.30
2018-07-13T16:08:53.944Z,38.00
2018-07-13T16:11:23.285Z,37.90
2018-07-13T16:13:52.674Z,37.90
2018-07-13T16:16:22.016Z,39.00
2018-07-13T16:18:51.341Z,39.30
2018-07-13T16:21:20.728Z,39.60
2018-07-13T16:23:50.151Z,38.40
2018-07-13T16:26:19.662Z,37.90
2018-07-13T16:28:48.936Z,38.20
2018-07-13T16:31:18.256Z,37.50
2018-07-13T16:33:47.639Z,36.60
2018-07-13T16:36:17.140Z,35.90
2018-07-13T16:38:46.468Z,35.00
2018-07-13T16:41:16.244Z,34.50
2018-07-13T16:43:46.104Z,33.90
2018-07-13T16:46:15.956Z,33.30
2018-07-13T16:48:45.692Z,33.00
2018-07-13T16:51:15.347Z,32.70
2018-07-13T16:53:45.110Z,32.30
2018-07-13T16:56:14.796Z,32.00
2018-07-13T16:58:44.303Z,31.70
2018-07-13T17:01:13.707Z,31.40
2018-07-13T17:03:43.071Z,31.30
2018-07-13T17:06:12.499Z,31.20
2018-07-13T17:08:42.106Z,31.20
2018-07-13T17:11:11.902Z,31.20
2018-07-13T17:13:41.399Z,30.90
2018-07-13T17:16:10.857Z,30.80
2018-07-13T17:18:40.208Z,30.60
2018-07-13T17:21:09.607Z,30.30
2018-07-13T17:23:38.903Z,30.00
2018-07-13T17:26:08.917Z,29.80
2018-07-13T17:28:38.225Z,29.30
2018-07-13T17:31:07.556Z,28.90
2018-07-13T17:33:36.850Z,28.80
2018-07-13T17:36:06.199Z,28.70
2018-07-13T17:41:07.208Z,28.60
2018-07-13T17:43:36.623Z,28.40
2018-07-13T17:46:06.359Z,28.20
2018-07-13T17:48:35.745Z,28.20
2018-07-13T17:51:05.104Z,28.20
2018-07-13T17:53:34.511Z,28.20
2018-07-13T17:56:05.065Z,28.30
2018-07-13T17:58:34.412Z,28.30
2018-07-13T18:01:03.783Z,28.30
2018-07-13T18:03:33.073Z,28.30
2018-07-13T18:06:02.467Z,28.20
2018-07-13T18:08:31.776Z,28.20
2018-07-13T18:11:01.044Z,28.30
2018-07-13T18:13:30.384Z,28.30
2018-07-13T18:16:00.063Z,28.20
2018-07-13T18:18:29.424Z,28.20
2018-07-13T18:20:58.861Z,28.10
2018-07-13T18:23:28.227Z,28.00
2018-07-13T18:25:57.697Z,27.90
2018-07-13T18:28:27.072Z,27.70
2018-07-13T18:30:56.339Z,27.30
2018-07-13T18:33:25.646Z,27.20
2018-07-13T18:35:55.035Z,26.90
2018-07-13T18:38:24.416Z,26.80
2018-07-13T18:40:53.753Z,26.90
2018-07-13T18:43:23.040Z,26.60
2018-07-13T18:45:52.500Z,26.60
2018-07-13T18:48:21.925Z,26.70
2018-07-13T18:50:51.580Z,26.70
2018-07-13T18:53:20.928Z,26.70
2018-07-13T18:55:50.271Z,26.70
2018-07-13T18:58:19.725Z,26.60
2018-07-13T19:00:49.032Z,26.50
2018-07-13T19:03:18.629Z,26.40
2018-07-13T19:05:49.258Z,26.50
2018-07-13T19:08:18.897Z,26.40
2018-07-13T19:10:55.669Z,26.10
2018-07-13T19:13:25.371Z,25.90
2018-07-13T19:15:55.000Z,26.00
2018-07-13T19:18:24.749Z,26.00
2018-07-13T19:20:54.512Z,25.90
2018-07-13T19:23:24.151Z,25.80
2018-07-13T19:25:53.879Z,25.70
2018-07-13T19:28:23.671Z,25.50
2018-07-13T19:30:53.473Z,25.20
2018-07-13T19:33:23.220Z,25.30
2018-07-13T19:35:52.804Z,25.10
2018-07-13T19:38:22.340Z,25.10
2018-07-13T19:40:52.198Z,25.10
2018-07-13T19:43:21.976Z,25.00
2018-07-13T19:45:51.612Z,24.90
2018-07-13T19:48:21.310Z,24.70
2018-07-13T19:50:51.212Z,24.50
2018-07-13T19:53:20.734Z,24.40
2018-07-13T19:55:50.119Z,24.40
2018-07-13T19:58:19.599Z,24.40
2018-07-13T20:00:49.032Z,24.30
2018-07-13T20:03:18.505Z,23.90
2018-07-13T20:05:47.960Z,23.50
2018-07-13T20:08:17.272Z,23.20
2018-07-13T20:10:46.615Z,23.20
2018-07-13T20:13:15.968Z,23.20
2018-07-13T20:15:45.365Z,23.30
2018-07-13T20:18:14.742Z,23.50
2018-07-13T20:20:44.049Z,23.50
2018-07-13T20:23:13.793Z,23.50
2018-07-13T20:25:43.226Z,23.40
2018-07-13T20:28:12.528Z,23.40
2018-07-13T20:30:42.081Z,23.40
2018-07-13T20:33:11.728Z,23.30
2018-07-13T20:35:41.671Z,23.30
2018-07-13T20:38:11.334Z,23.30
2018-07-13T20:40:41.275Z,23.30
2018-07-13T20:43:11.179Z,23.30
2018-07-13T20:45:41.210Z,23.30
2018-07-13T20:48:10.925Z,23.00
2018-07-13T20:50:40.768Z,23.00
2018-07-13T20:53:10.355Z,23.00
2018-07-13T20:55:40.460Z,22.90
2018-07-13T20:58:10.040Z,22.80
2018-07-13T21:00:39.905Z,22.70
2018-07-13T21:03:09.142Z,22.50
2018-07-13T21:05:38.583Z,22.40
2018-07-13T21:08:07.816Z,22.30
2018-07-13T21:10:37.109Z,22.20
2018-07-13T21:13:06.319Z,22.20
2018-07-13T21:15:35.590Z,22.00
2018-07-13T21:18:04.812Z,21.90
2018-07-13T21:20:34.039Z,21.90
2018-07-13T21:23:03.280Z,21.90
2018-07-13T21:25:32.609Z,21.90
2018-07-13T21:28:01.853Z,22.00
2018-07-13T21:32:59.784Z,22.00
2018-07-13T21:35:29.089Z,22.00
2018-07-13T21:37:58.296Z,21.90
2018-07-13T21:40:27.516Z,21.80
2018-07-13T21:42:56.816Z,21.70
2018-07-13T21:45:26.073Z,21.70
2018-07-13T21:47:55.366Z,21.70
2018-07-13T21:50:24.597Z,21.60
2018-07-13T21:52:53.816Z,21.70
2018-07-13T21:55:23.085Z,21.60
2018-07-13T21:57:52.724Z,21.50
2018-07-13T22:00:22.275Z,21.40
2018-07-13T22:02:51.596Z,21.40
2018-07-13T22:05:20.871Z,21.40
2018-07-13T22:07:50.104Z,21.40
2018-07-13T22:10:19.644Z,21.40
2018-07-13T22:12:48.944Z,21.40
2018-07-13T22:15:18.280Z,21.30
2018-07-13T22:17:47.513Z,21.30
2018-07-13T22:20:16.708Z,21.30
2018-07-13T22:22:45.977Z,21.20
2018-07-13T22:25:15.281Z,21.20
2018-07-13T22:27:44.499Z,21.10
2018-07-13T22:30:13.724Z,21.10
2018-07-13T22:32:43.012Z,21.10
2018-07-13T22:35:12.304Z,21.10
2018-07-13T22:37:41.501Z,21.00
2018-07-13T22:40:10.702Z,21.10
2018-07-13T22:42:39.894Z,21.20
2018-07-13T22:45:09.196Z,21.10
2018-07-13T22:47:38.568Z,21.10
2018-07-13T22:50:07.897Z,21.00
2018-07-13T22:52:37.100Z,20.90
2018-07-13T22:55:06.563Z,20.80
2018-07-13T22:57:35.772Z,20.80
2018-07-13T23:00:05.237Z,20.70
2018-07-13T23:02:34.540Z,20.70
2018-07-13T23:05:04.556Z,20.60
2018-07-13T23:07:34.373Z,20.60
2018-07-13T23:10:04.171Z,20.50
2018-07-13T23:12:33.848Z,20.50
2018-07-13T23:15:04.685Z,20.30
2018-07-13T23:17:34.190Z,20.30
2018-07-13T23:20:04.241Z,20.30
2018-07-13T23:22:33.820Z,20.30
2018-07-13T23:25:04.553Z,20.30
2018-07-13T23:27:33.988Z,20.10
2018-07-13T23:30:03.669Z,20.10
2018-07-13T23:32:33.174Z,20.10
2018-07-13T23:35:03.938Z,20.20
2018-07-13T23:37:33.454Z,20.20
2018-07-13T23:40:03.326Z,20.20
2018-07-13T23:42:32.826Z,20.10
2018-07-13T23:45:02.398Z,20.00
2018-07-13T23:47:31.943Z,20.00
2018-07-13T23:50:01.584Z,20.10
2018-07-13T23:52:31.187Z,20.10
2018-07-13T23:55:00.765Z,20.10
2018-07-13T23:57:30.475Z,20.20
